San Benedetto del Tronto, Italy

3:35 AM CEST on May 06, 2015 (GMT +0200)
Controguerra | | Change Station
CLOSE
Current Station
Personal Weather Station
Location: Abruzzo, ABRUZZO
Elevation: 797 ft
Nearby Weather Stations

Elev 797 ft 42.85 °N, 13.82 °E | Updated 16 seconds ago

Fog
Fog
64.1 °F
Feels Like 64.1 °F
N
5.0
Wind Variable Wind from NW
Gusts 6.0 mph

Today
High -- | Low -- °F
--% Chance of Precip.
Yesterday
High -- | Low -- °F
Precip. -- in
5:52 AM 8:10 PM
Waning Gibbous, 96% visible
Pressure 29.89 in
Visibility 0.1 miles
Clouds Scattered Clouds 3000 ft
Mostly Cloudy 3000 ft
Dew Point 60 °F
Humidity 85%
Rainfall 0.00 in
Snow Depth Not available.
UV 0.0 out of 12
Pollen Not available.
Air Quality Not available.
Flu Activity Not available.
METAR LIBP 060050Z 00000KT 0200 FG SCT030 BKN030 17/16 Q1012

More Conditions Fewer Conditions

Pressure 29.89 in
Visibility 0.1 miles
Clouds Scattered Clouds 3000 ft
Mostly Cloudy 3000 ft
Dew Point 60 °F
Humidity 85%
Rainfall 0.00 in
Snow Depth Not available.
UV 0.0 out of 12
Pollen Not available.
Air Quality Not available.
Flu Activity Not available.
METAR LIBP 060050Z 00000KT 0200 FG SCT030 BKN030 17/16 Q1012

More Conditions Fewer Conditions

10-Day Weather Forecast

Almanac

Astronomy

May. 06, 2015 Rise Set
Actual Time
Civil Twilight
Nautical Twilight
Astronomical Twilight
Moon
Length of Visible Light
Length of Day
Tomorrow will be .
, % of the Moon is Illuminated

Today's Extremes

Country Highs Country Lows

Community

WunderPhotos

Upload Photos

1,819,036 photos uploaded!

WunderBlogs® & News

Nearby

Air Quality

  Air Quality AQ Index Pollutant
Not available.

Snow Depth

Station Depth Elevation

Earthquake Activity

City Distance Mag. Time & Date
Minimum magnitude displayed is 2.5.

Coastal Water Temperatures

Place Temperature

Stations

Nearby Weather Stations

Station Location Temp. Windchill Dew Point Humidity Wind Precip. Elev Updated Type